Kezdőlap
METAR-TAF:

METAR-TAF

Repülőterek :

Tan Son Nhat nemzetközi repülőtér

Ho Si Minh-város, Vietnam

földrajzi szélesség: 10-49N, földrajzi hosszúság: 106-40E, magasság: 19 m

Jelenlegi meteorológiai megfigyelések

A jelentés 39 perccel ezelõtt készült, 01:00 UTC
Kelet-délkeleti szél 7 kt
Hőmérséklet 26°C
Páratartalom 84%
Légköri nyomás 1014 hPa
Látótávolság 10 km, vagy több
Szórványos felhőzet 2000 lábon

METAR: VVTS 290100Z 12007KT 9999 SCT020 26/23 Q1014 NOSIG

Idő: 08:39 (01:39 UTC)

Előrejelzés

A jelentés 2 órával és 39 perccel ezelõtt készült, 23:00 UTC
Az előrejelzés 29-én 00 óra UTC és 30-én 06 óra UTC között érvényes
Kelet-délkeleti szél 4 kt
Látótávolság 10 km, vagy több
Szórványos felhőzet 2000 lábon
29-én 05 óra UTC és 29-én 06 óra UTC között fokozatosan kialakuló
Délkeleti szél 10 kt

TAF: VVTS 282300Z 2900/3006 12004KT 9999 SCT020 BECMG 2905/2906 14010KT

Meteorológiai megfigyelések és előrejelzések több, mint 4000 repülőtéren (METAR és TAF jelentéseket).

A térképen piros és sárga pontok jelzik az elérhető meteorológiai állomásokat.

Mozgassa az egeret a pont fölött, hogy megjelenjen az állomás neve.

Azután kattintson az időjárási megfigyelések és előrejelzések megtekintéséhez.

A térkép megváltoztatása: kattintson a fekete keresztel jelölt zöld gombra ráközelítéshez, a vonallal jelölt zöld gombra távolításhoz, vagy a zöld nyilakra a szomszédos térképek eléréséhez.


METAR-TAF: